Time;durP1;ratioP1;P1;durP2;ratioP2;P2;SDS_P1;SDS_P2;PMS_P1;PMS_P2;Temp;Humidity;BMP_temperature;BMP_pressure;BME280_temperature;BME280_humidity;BME280_pressure;Samples;Min_cycle;Max_cycle;Signal;HPM_P1;HPM_P2
2021/01/02 00:02:37;;;;;;;23.40;17.48;;;9.30;99.90;;;;;;4996584;28;20193;-79
2021/01/02 00:05:09;;;;;;;25.15;18.65;;;9.30;99.90;;;;;;4996587;28;20219;-78
2021/01/02 00:08:06;;;;;;;24.30;18.13;;;9.40;99.90;;;;;;4996370;28;20197;-79
2021/01/02 00:10:40;;;;;;;24.95;17.80;;;9.40;99.90;;;;;;4996375;28;20228;-78
2021/01/02 00:13:19;;;;;;;22.50;18.20;;;9.30;99.90;;;;;;4996512;28;20197;-78
2021/01/02 00:16:18;;;;;;;21.35;16.13;;;9.30;99.90;;;;;;4996473;28;20249;-78
2021/01/02 00:19:01;;;;;;;17.80;15.90;;;9.20;99.90;;;;;;4989189;28;20727;-78
2021/01/02 00:21:28;;;;;;;22.52;15.98;;;9.20;99.90;;;;;;4996221;28;20201;-79
2021/01/02 00:24:31;;;;;;;22.20;18.90;;;9.20;99.90;;;;;;4996132;28;20671;-78
2021/01/02 00:27:05;;;;;;;21.33;17.08;;;9.20;99.90;;;;;;4996168;28;20224;-79
2021/01/02 00:30:09;;;;;;;20.15;16.27;;;9.20;99.90;;;;;;4996005;28;20223;-79
2021/01/02 00:32:46;;;;;;;26.85;15.70;;;9.20;99.90;;;;;;4956987;28;20236;-79
2021/01/02 00:35:16;;;;;;;28.92;17.90;;;9.20;99.90;;;;;;5015614;28;20219;-78
2021/01/02 00:37:45;;;;;;;18.90;15.68;;;9.10;99.90;;;;;;5015650;28;20196;-78
2021/01/02 00:40:13;;;;;;;22.92;16.50;;;9.20;99.90;;;;;;5015458;28;20270;-78
2021/01/02 00:42:42;;;;;;;22.65;17.20;;;9.10;99.90;;;;;;5015318;28;20246;-78
2021/01/02 00:45:10;;;;;;;23.15;16.88;;;9.10;99.90;;;;;;5015355;28;20203;-78
2021/01/02 00:47:38;;;;;;;20.67;15.70;;;9.20;99.90;;;;;;5015278;28;20196;-78
2021/01/02 00:50:07;;;;;;;21.90;16.08;;;9.20;99.90;;;;;;5015207;28;20814;-78
2021/01/02 00:53:18;;;;;;;24.40;18.30;;;9.20;99.90;;;;;;5015179;28;20196;-79
2021/01/02 00:55:59;;;;;;;25.20;17.38;;;9.20;99.90;;;;;;5015138;28;20207;-78
2021/01/02 00:58:46;;;;;;;21.77;17.55;;;9.10;99.90;;;;;;5014973;28;20199;-79
2021/01/02 01:01:20;;;;;;;22.13;17.63;;;9.00;99.90;;;;;;5015304;28;20207;-79
2021/01/02 01:04:17;;;;;;;28.70;17.45;;;9.00;99.90;;;;;;5014970;28;20204;-79
2021/01/02 01:06:44;;;;;;;23.38;17.80;;;9.00;99.90;;;;;;5014875;28;20542;-78
2021/01/02 01:09:13;;;;;;;24.02;18.15;;;9.00;99.90;;;;;;5014780;28;20235;-78
2021/01/02 01:11:46;;;;;;;24.63;17.58;;;8.90;99.90;;;;;;5014750;28;20227;-79
2021/01/02 01:14:14;;;;;;;21.80;15.63;;;8.90;99.90;;;;;;5014636;28;20279;-79
2021/01/02 01:16:44;;;;;;;26.70;18.92;;;8.90;99.90;;;;;;5014975;28;20192;-79
2021/01/02 01:19:15;;;;;;;22.25;17.00;;;8.90;99.90;;;;;;5014919;28;20200;-78
2021/01/02 01:21:46;;;;;;;27.95;18.45;;;8.90;99.90;;;;;;5014629;28;20605;-78
2021/01/02 01:24:17;;;;;;;22.17;17.15;;;9.00;99.90;;;;;;5014606;28;20199;-79
2021/01/02 01:27:03;;;;;;;25.35;17.63;;;8.80;99.90;;;;;;5014594;28;20201;-78
2021/01/02 01:29:40;;;;;;;26.77;17.63;;;8.80;99.90;;;;;;5014491;28;20227;-78
2021/01/02 01:32:08;;;;;;;21.48;16.75;;;8.70;99.90;;;;;;5014503;28;20250;-78
2021/01/02 01:34:35;;;;;;;21.02;17.60;;;8.80;99.90;;;;;;5014536;28;20196;-78
2021/01/02 01:37:04;;;;;;;25.95;18.00;;;8.80;99.90;;;;;;5014452;28;20243;-78
2021/01/02 01:39:32;;;;;;;25.20;19.40;;;8.70;99.90;;;;;;5014467;28;20196;-78
2021/01/02 01:42:00;;;;;;;25.13;19.15;;;8.60;99.90;;;;;;5014314;28;20196;-78
2021/01/02 01:44:51;;;;;;;24.65;18.17;;;8.60;99.90;;;;;;5014299;28;20196;-78
2021/01/02 01:47:19;;;;;;;22.95;17.08;;;8.60;99.90;;;;;;5014139;28;20215;-78
2021/01/02 01:50:15;;;;;;;28.00;19.35;;;8.70;99.90;;;;;;5013987;28;20228;-78
2021/01/02 01:53:10;;;;;;;24.90;19.70;;;8.60;99.90;;;;;;5014122;28;20196;-78
2021/01/02 01:55:48;;;;;;;28.40;20.05;;;8.50;99.90;;;;;;5014191;28;20196;-78
2021/01/02 01:58:17;;;;;;;26.67;19.35;;;8.50;99.90;;;;;;5013936;28;20262;-78
2021/01/02 02:00:46;;;;;;;29.55;20.67;;;8.50;99.90;;;;;;5014231;28;20541;-78
2021/01/02 02:03:23;;;;;;;31.70;20.38;;;8.50;99.90;;;;;;5014017;28;20192;-78
2021/01/02 02:05:52;;;;;;;23.33;17.77;;;8.40;99.90;;;;;;5014345;28;20192;-78
2021/01/02 02:08:40;;;;;;;23.67;17.15;;;8.40;99.90;;;;;;5013676;28;20259;-78
2021/01/02 02:11:07;;;;;;;28.17;19.48;;;8.40;99.90;;;;;;5013114;28;20224;-78
2021/01/02 02:13:44;;;;;;;24.58;18.30;;;8.50;99.90;;;;;;5013745;28;20659;-78
2021/01/02 02:16:13;;;;;;;25.58;18.05;;;8.50;99.90;;;;;;5013716;28;20247;-78
2021/01/02 02:18:43;;;;;;;25.35;20.10;;;8.50;99.90;;;;;;5013804;28;20207;-78
2021/01/02 02:21:11;;;;;;;25.17;18.05;;;8.50;99.90;;;;;;5013849;28;20258;-78
2021/01/02 02:23:41;;;;;;;27.23;18.83;;;8.60;99.90;;;;;;5013620;28;20670;-78
2021/01/02 02:26:16;;;;;;;24.67;18.70;;;8.70;99.90;;;;;;5013667;28;20555;-78
2021/01/02 02:29:03;;;;;;;23.48;18.05;;;8.70;99.90;;;;;;5013684;28;20588;-78
2021/01/02 02:31:33;;;;;;;25.15;18.42;;;8.60;99.90;;;;;;5013434;28;20254;-78
2021/01/02 02:34:01;;;;;;;26.02;19.15;;;8.60;99.90;;;;;;5013452;28;20232;-78
2021/01/02 02:36:29;;;;;;;23.92;18.42;;;8.60;99.90;;;;;;5013360;28;20196;-78
2021/01/02 02:42:18;;;;;;;29.75;19.40;;;8.60;99.90;;;;;;5013562;28;20212;-78
2021/01/02 02:44:46;;;;;;;26.70;19.58;;;8.50;99.90;;;;;;5013527;28;20195;-78
2021/01/02 02:47:16;;;;;;;24.92;18.48;;;8.50;99.90;;;;;;5013358;28;20204;-79
2021/01/02 02:49:45;;;;;;;26.02;18.20;;;8.50;99.90;;;;;;5013336;28;20228;-78
2021/01/02 02:52:20;;;;;;;25.55;18.23;;;8.60;99.90;;;;;;5013586;28;20220;-78
2021/01/02 02:54:46;;;;;;;26.33;18.25;;;8.60;99.90;;;;;;5013522;28;20730;-78
2021/01/02 02:57:15;;;;;;;25.08;19.23;;;8.70;99.90;;;;;;5013469;28;20541;-78
2021/01/02 02:59:42;;;;;;;25.33;17.90;;;8.80;99.90;;;;;;5013258;28;20203;-79
2021/01/02 03:02:10;;;;;;;26.80;17.02;;;8.90;99.90;;;;;;5013149;28;20207;-78
2021/01/02 03:04:37;;;;;;;22.52;17.20;;;8.90;99.90;;;;;;5013048;28;20204;-78
2021/01/02 03:07:04;;;;;;;22.20;16.95;;;8.90;99.90;;;;;;5013104;28;20200;-78
2021/01/02 03:09:31;;;;;;;23.73;17.95;;;8.90;99.90;;;;;;5013142;28;20262;-78
2021/01/02 03:11:57;;;;;;;24.63;16.88;;;9.00;99.90;;;;;;5013243;28;20208;-78
2021/01/02 03:14:24;;;;;;;22.73;17.00;;;9.00;99.90;;;;;;5013144;28;20579;-78
2021/01/02 03:16:54;;;;;;;23.98;16.58;;;9.00;99.90;;;;;;5013206;28;20231;-78
2021/01/02 03:19:20;;;;;;;24.92;17.90;;;9.00;99.90;;;;;;5013424;28;20246;-79
2021/01/02 03:21:47;;;;;;;26.88;18.30;;;9.00;99.90;;;;;;5013181;28;20599;-78
2021/01/02 03:24:14;;;;;;;21.35;16.35;;;9.00;99.90;;;;;;5016305;28;20208;-78
2021/01/02 03:26:40;;;;;;;24.23;17.05;;;9.00;99.90;;;;;;5016829;28;20223;-78
2021/01/02 03:29:06;;;;;;;21.45;15.73;;;9.10;99.90;;;;;;5016692;28;20231;-78
2021/01/02 03:31:32;;;;;;;23.33;16.40;;;9.00;99.90;;;;;;5016656;28;20192;-78
2021/01/02 03:33:59;;;;;;;20.85;15.90;;;8.90;99.90;;;;;;5016772;28;20224;-78
2021/01/02 03:36:25;;;;;;;22.52;14.63;;;9.00;99.90;;;;;;5016869;28;20200;-78
2021/01/02 03:38:54;;;;;;;17.05;14.25;;;9.00;99.90;;;;;;5016609;28;20197;-78
2021/01/02 03:41:21;;;;;;;19.42;15.00;;;9.00;99.90;;;;;;5016687;28;20220;-78
2021/01/02 03:43:48;;;;;;;18.92;14.35;;;9.00;99.90;;;;;;5016650;28;20267;-79
2021/01/02 03:46:14;;;;;;;16.98;13.35;;;9.00;99.90;;;;;;5016582;28;20200;-78
2021/01/02 03:48:40;;;;;;;19.80;15.30;;;9.00;99.90;;;;;;5016314;28;20289;-78
2021/01/02 03:51:07;;;;;;;19.02;13.98;;;9.00;99.90;;;;;;5016591;28;20196;-78
2021/01/02 03:53:33;;;;;;;17.52;13.57;;;9.00;99.90;;;;;;5016402;28;20550;-78
2021/01/02 03:56:00;;;;;;;18.23;13.05;;;8.90;99.90;;;;;;5016600;28;20254;-78
2021/01/02 03:58:27;;;;;;;19.63;13.68;;;8.90;99.90;;;;;;5016231;28;20261;-78
2021/01/02 04:00:53;;;;;;;19.50;13.75;;;9.00;99.90;;;;;;5016311;28;20211;-79
2021/01/02 04:03:20;;;;;;;17.25;13.38;;;9.00;99.90;;;;;;5016287;28;20232;-78
2021/01/02 04:05:47;;;;;;;15.65;11.52;;;8.90;99.90;;;;;;5016219;28;20246;-78
2021/01/02 04:08:14;;;;;;;16.60;11.63;;;8.90;99.90;;;;;;5016057;28;20215;-79
2021/01/02 04:10:40;;;;;;;16.73;11.90;;;8.90;99.90;;;;;;5015957;28;20219;-79
2021/01/02 04:13:07;;;;;;;14.25;10.70;;;8.90;99.90;;;;;;5015967;28;20651;-78
2021/01/02 04:15:33;;;;;;;18.95;10.80;;;8.90;99.90;;;;;;5015860;28;20197;-79
2021/01/02 04:18:00;;;;;;;14.10;10.48;;;8.80;99.90;;;;;;5016156;28;20195;-78
2021/01/02 04:20:27;;;;;;;13.02;10.90;;;8.80;99.90;;;;;;5015807;28;20206;-78
2021/01/02 04:22:53;;;;;;;15.55;9.95;;;8.80;99.90;;;;;;5015827;28;20816;-78
2021/01/02 04:25:19;;;;;;;13.57;10.20;;;8.90;99.90;;;;;;5015831;28;20202;-78
2021/01/02 04:27:46;;;;;;;14.88;9.80;;;8.80;99.90;;;;;;5015697;28;20196;-79
2021/01/02 04:30:14;;;;;;;17.83;9.95;;;8.90;99.90;;;;;;5015577;28;20224;-78
2021/01/02 04:32:44;;;;;;;14.52;10.80;;;8.80;99.90;;;;;;5015432;28;20695;-78
2021/01/02 04:35:12;;;;;;;16.50;12.20;;;8.70;99.90;;;;;;5015262;28;20196;-78
2021/01/02 04:37:38;;;;;;;14.45;10.32;;;8.70;99.90;;;;;;5015647;28;20529;-79
2021/01/02 04:40:06;;;;;;;17.75;11.02;;;8.60;99.90;;;;;;5015546;28;20282;-79
2021/01/02 04:42:34;;;;;;;15.20;11.25;;;8.70;99.90;;;;;;5015417;28;20204;-78
2021/01/02 04:45:00;;;;;;;16.08;11.65;;;8.70;99.90;;;;;;5015458;28;20247;-78
2021/01/02 04:47:30;;;;;;;16.60;11.30;;;8.70;99.90;;;;;;5015420;28;20203;-78
2021/01/02 04:49:59;;;;;;;13.02;11.57;;;8.60;99.90;;;;;;5015311;28;20228;-78
2021/01/02 04:52:27;;;;;;;14.85;11.75;;;8.60;99.90;;;;;;5015415;28;20222;-78
2021/01/02 04:54:55;;;;;;;16.92;11.15;;;8.60;99.90;;;;;;5015108;28;20197;-78
2021/01/02 04:57:21;;;;;;;16.20;11.40;;;8.70;99.90;;;;;;5015061;28;20200;-78
2021/01/02 04:59:49;;;;;;;19.60;12.65;;;8.70;99.90;;;;;;5015297;28;20537;-78
2021/01/02 05:02:18;;;;;;;14.43;12.65;;;8.70;99.90;;;;;;5015245;28;20207;-78
2021/01/02 05:04:47;;;;;;;15.50;12.77;;;8.70;99.90;;;;;;5015144;28;20196;-78
2021/01/02 05:07:23;;;;;;;14.60;11.95;;;8.80;99.90;;;;;;5014917;28;20196;-79
2021/01/02 05:09:49;;;;;;;16.95;12.98;;;8.80;99.90;;;;;;5014947;28;20255;-78
2021/01/02 05:12:26;;;;;;;18.02;12.52;;;8.70;99.90;;;;;;5014972;28;20200;-79
2021/01/02 05:15:04;;;;;;;18.10;12.25;;;8.70;99.90;;;;;;5014940;28;20231;-78
2021/01/02 05:17:31;;;;;;;17.45;12.93;;;8.70;99.90;;;;;;5014964;28;20192;-78
2021/01/02 05:20:06;;;;;;;16.05;13.13;;;8.60;99.90;;;;;;5014838;28;20207;-78
2021/01/02 05:22:33;;;;;;;16.65;12.75;;;8.80;99.90;;;;;;5014675;28;20242;-79
2021/01/02 05:25:13;;;;;;;16.33;13.15;;;8.70;99.90;;;;;;5014622;28;20207;-78
2021/01/02 05:27:42;;;;;;;17.52;12.52;;;8.60;99.90;;;;;;5014617;28;20207;-79
2021/01/02 05:30:28;;;;;;;17.98;13.50;;;8.60;99.90;;;;;;5014604;28;20228;-79
2021/01/02 05:33:08;;;;;;;15.55;12.73;;;8.60;99.90;;;;;;5014544;28;20249;-79
2021/01/02 05:35:44;;;;;;;18.08;12.70;;;8.50;99.90;;;;;;5014549;28;20200;-78
2021/01/02 05:38:19;;;;;;;19.15;13.68;;;8.60;99.90;;;;;;5014388;28;20560;-78
2021/01/02 05:40:49;;;;;;;20.35;14.55;;;8.60;99.90;;;;;;5014118;28;20334;-78
2021/01/02 05:43:17;;;;;;;15.45;13.02;;;8.60;99.90;;;;;;5014392;28;20648;-78
2021/01/02 05:45:44;;;;;;;15.90;12.00;;;8.60;99.90;;;;;;5013436;28;20557;-78
2021/01/02 05:48:16;;;;;;;17.85;14.77;;;8.60;99.90;;;;;;5014203;28;20550;-78
2021/01/02 05:50:48;;;;;;;17.88;14.23;;;8.60;99.90;;;;;;5014185;28;20210;-79
2021/01/02 05:53:22;;;;;;;16.45;12.65;;;8.60;99.90;;;;;;5014068;28;20196;-78
2021/01/02 05:56:04;;;;;;;21.83;14.77;;;8.60;99.90;;;;;;5014100;28;20201;-78
2021/01/02 05:58:32;;;;;;;19.25;13.13;;;8.60;99.90;;;;;;5014074;28;20200;-78
2021/01/02 06:01:12;;;;;;;17.50;13.30;;;8.50;99.90;;;;;;5014002;28;20208;-78
2021/01/02 06:03:40;;;;;;;18.02;12.60;;;8.40;99.90;;;;;;5014153;28;20600;-78
2021/01/02 06:06:08;;;;;;;19.15;14.18;;;8.40;99.90;;;;;;5014086;28;20533;-79
2021/01/02 06:08:40;;;;;;;19.02;13.82;;;8.40;99.90;;;;;;5013907;28;20200;-79
2021/01/02 06:11:09;;;;;;;17.13;13.45;;;8.40;99.90;;;;;;5013855;28;20327;-78
2021/01/02 06:13:38;;;;;;;20.17;13.65;;;8.40;99.90;;;;;;5013905;28;20211;-78
2021/01/02 06:16:06;;;;;;;20.00;13.80;;;8.50;99.90;;;;;;5013800;28;20199;-78
2021/01/02 06:18:34;;;;;;;20.35;13.30;;;8.60;99.90;;;;;;5013820;28;20713;-78
2021/01/02 06:21:02;;;;;;;20.02;13.85;;;8.60;99.90;;;;;;5013715;28;20211;-78
2021/01/02 06:23:30;;;;;;;16.70;12.00;;;8.60;99.90;;;;;;5013581;28;20243;-78
2021/01/02 06:25:57;;;;;;;20.95;13.18;;;8.60;99.90;;;;;;5013829;28;20556;-78
2021/01/02 06:28:25;;;;;;;19.65;14.15;;;8.70;99.90;;;;;;5013498;28;20726;-79
2021/01/02 06:30:58;;;;;;;16.10;12.25;;;8.60;99.90;;;;;;5013592;28;20291;-79
2021/01/02 06:33:27;;;;;;;17.20;13.85;;;8.60;99.90;;;;;;5013440;28;20298;-78
2021/01/02 06:35:53;;;;;;;21.13;14.10;;;8.50;99.90;;;;;;5013630;28;20200;-78
2021/01/02 06:38:20;;;;;;;18.27;11.35;;;8.50;99.90;;;;;;5013650;28;20200;-79
2021/01/02 06:40:48;;;;;;;20.65;15.95;;;8.60;99.90;;;;;;5013471;28;20217;-79
2021/01/02 06:43:17;;;;;;;17.77;13.13;;;8.60;99.90;;;;;;5013680;28;20200;-79
2021/01/02 06:46:00;;;;;;;17.95;13.00;;;8.60;99.90;;;;;;5013395;28;20552;-79
2021/01/02 06:48:43;;;;;;;16.92;13.45;;;8.60;99.90;;;;;;5013402;28;20203;-78
2021/01/02 06:51:33;;;;;;;15.98;12.95;;;8.70;99.90;;;;;;5013613;28;20287;-78
2021/01/02 06:54:20;;;;;;;19.65;14.20;;;8.70;99.90;;;;;;4993912;28;20207;-78
2021/01/02 06:57:00;;;;;;;20.55;14.20;;;8.70;99.90;;;;;;5014262;28;20199;-79
2021/01/02 06:59:26;;;;;;;18.38;13.95;;;8.70;99.90;;;;;;5017407;28;20195;-79
2021/01/02 07:01:52;;;;;;;18.13;14.00;;;8.70;99.90;;;;;;5017382;28;20196;-79
2021/01/02 07:04:34;;;;;;;18.65;13.70;;;8.60;99.90;;;;;;5017450;28;20196;-79
2021/01/02 07:07:01;;;;;;;19.48;14.27;;;8.60;99.90;;;;;;5017172;28;20200;-79
2021/01/02 07:09:28;;;;;;;20.75;14.13;;;8.60;99.90;;;;;;5017174;28;20228;-78
2021/01/02 07:12:13;;;;;;;16.05;12.75;;;8.60;99.90;;;;;;5017285;28;20207;-78
2021/01/02 07:14:41;;;;;;;22.70;13.35;;;8.60;99.90;;;;;;5017116;28;20250;-78
2021/01/02 07:17:10;;;;;;;19.15;13.73;;;8.60;99.90;;;;;;5017109;28;20262;-78
2021/01/02 07:19:42;;;;;;;18.08;12.43;;;8.60;99.90;;;;;;5017202;28;20200;-78
2021/01/02 07:22:11;;;;;;;20.05;14.05;;;8.50;99.90;;;;;;5016883;28;20200;-79
2021/01/02 07:24:43;;;;;;;21.20;14.50;;;8.60;99.90;;;;;;5017106;28;20201;-78
2021/01/02 07:27:12;;;;;;;19.52;13.45;;;8.50;99.90;;;;;;5016719;28;20307;-78
2021/01/02 07:29:41;;;;;;;22.80;13.93;;;8.50;99.90;;;;;;5016788;28;20282;-79
2021/01/02 07:32:11;;;;;;;20.67;14.10;;;8.60;99.90;;;;;;5016638;28;20572;-79
2021/01/02 07:34:38;;;;;;;16.15;13.10;;;8.60;99.90;;;;;;5016844;28;20196;-79
2021/01/02 07:37:07;;;;;;;24.20;14.50;;;8.60;99.90;;;;;;5016831;28;20666;-78
2021/01/02 07:39:34;;;;;;;18.67;14.00;;;8.40;99.90;;;;;;5016602;28;20216;-78
2021/01/02 07:42:11;;;;;;;19.67;13.18;;;8.40;99.90;;;;;;5016486;28;20200;-79
2021/01/02 07:44:39;;;;;;;18.33;13.98;;;8.40;99.90;;;;;;5016725;28;20196;-79
2021/01/02 07:47:06;;;;;;;16.48;12.35;;;8.50;99.90;;;;;;5016575;28;20196;-78
2021/01/02 07:49:32;;;;;;;19.52;13.80;;;8.40;99.90;;;;;;5016633;28;20228;-79
2021/01/02 07:51:59;;;;;;;19.02;13.90;;;8.40;99.90;;;;;;5016429;28;20562;-78
2021/01/02 07:54:32;;;;;;;19.90;14.50;;;8.30;99.90;;;;;;5016313;28;20202;-78
2021/01/02 07:56:59;;;;;;;21.35;14.60;;;8.40;99.90;;;;;;5016557;28;20284;-79
2021/01/02 07:59:28;;;;;;;24.30;15.98;;;8.40;99.90;;;;;;5016543;28;20559;-78
2021/01/02 08:01:55;;;;;;;20.83;15.02;;;8.40;99.90;;;;;;5016260;28;20196;-79
2021/01/02 08:04:23;;;;;;;21.42;14.80;;;8.40;99.90;;;;;;5016414;28;20203;-79
2021/01/02 08:06:51;;;;;;;21.00;13.68;;;8.30;99.90;;;;;;5016017;28;20204;-78
2021/01/02 08:09:18;;;;;;;19.17;14.43;;;8.40;99.90;;;;;;5015118;28;20232;-78
2021/01/02 08:11:52;;;;;;;19.73;14.23;;;8.40;99.90;;;;;;5016235;28;20208;-79
2021/01/02 08:14:19;;;;;;;16.73;12.88;;;8.40;99.90;;;;;;5016016;28;20258;-78
2021/01/02 08:17:04;;;;;;;21.85;15.13;;;8.40;99.90;;;;;;5015944;28;20203;-79
2021/01/02 08:19:31;;;;;;;22.30;15.52;;;8.30;99.90;;;;;;5015967;28;20196;-78
2021/01/02 08:22:02;;;;;;;21.10;14.52;;;8.30;99.90;;;;;;5015914;28;20212;-78
2021/01/02 08:24:28;;;;;;;24.60;15.77;;;8.20;99.90;;;;;;5015869;28;20196;-78
2021/01/02 08:26:56;;;;;;;18.60;13.32;;;8.20;99.90;;;;;;5016028;28;20553;-79
2021/01/02 08:29:24;;;;;;;21.52;14.38;;;8.20;99.90;;;;;;5015571;28;20220;-79
2021/01/02 08:31:53;;;;;;;26.17;16.25;;;8.20;99.90;;;;;;5015541;28;20204;-79
2021/01/02 08:34:26;;;;;;;20.92;15.70;;;8.20;99.90;;;;;;5015766;28;20209;-79
2021/01/02 08:36:57;;;;;;;21.13;15.05;;;8.20;99.90;;;;;;5015679;28;20201;-79
2021/01/02 08:39:24;;;;;;;18.05;13.07;;;8.30;99.90;;;;;;5015536;28;20691;-79
2021/01/02 08:41:53;;;;;;;26.58;17.08;;;8.40;99.90;;;;;;5015442;28;20205;-78
2021/01/02 08:44:29;;;;;;;26.38;15.55;;;8.40;99.90;;;;;;5015498;28;20728;-78
2021/01/02 08:46:56;;;;;;;33.88;14.68;;;8.50;99.90;;;;;;5015696;28;20274;-78
2021/01/02 08:49:31;;;;;;;21.08;14.82;;;8.50;99.90;;;;;;5015309;28;20223;-78
2021/01/02 08:52:17;;;;;;;20.55;14.90;;;8.60;99.90;;;;;;5015263;28;20203;-78
2021/01/02 08:54:43;;;;;;;24.77;15.48;;;8.50;99.90;;;;;;5015263;28;20200;-78
2021/01/02 08:57:26;;;;;;;20.98;14.75;;;8.50;99.90;;;;;;5015685;28;20218;-78
2021/01/02 09:00:08;;;;;;;23.27;14.98;;;8.50;99.90;;;;;;5015229;28;20200;-78
2021/01/02 09:02:35;;;;;;;24.90;14.85;;;8.40;99.90;;;;;;5015128;28;20200;-79
2021/01/02 09:05:07;;;;;;;20.80;15.60;;;8.30;99.90;;;;;;5015014;28;20197;-79
2021/01/02 09:07:34;;;;;;;25.73;16.60;;;8.20;99.90;;;;;;5014991;28;20196;-78
2021/01/02 09:10:19;;;;;;;22.20;15.98;;;8.30;99.90;;;;;;5014539;28;20250;-78
2021/01/02 09:13:12;;;;;;;22.67;16.05;;;8.30;99.90;;;;;;5015066;28;20200;-78
2021/01/02 09:15:46;;;;;;;24.02;15.95;;;8.40;99.90;;;;;;5014934;28;20207;-78
2021/01/02 09:18:15;;;;;;;20.98;14.88;;;8.30;99.90;;;;;;5014989;28;20199;-78
2021/01/02 09:20:42;;;;;;;28.42;18.63;;;8.30;99.90;;;;;;5014929;28;20206;-79
2021/01/02 09:23:09;;;;;;;24.52;17.20;;;8.30;99.90;;;;;;5014712;28;20196;-78
2021/01/02 09:25:37;;;;;;;21.88;16.70;;;8.30;99.90;;;;;;5014680;28;20200;-78
2021/01/02 09:28:11;;;;;;;24.10;15.75;;;8.30;99.90;;;;;;5014573;28;20197;-79
2021/01/02 09:30:37;;;;;;;22.25;15.82;;;8.40;99.90;;;;;;5014413;28;20224;-78
2021/01/02 09:33:04;;;;;;;26.15;17.35;;;8.50;99.90;;;;;;5014430;28;20782;-79
2021/01/02 09:35:30;;;;;;;26.52;17.38;;;8.50;99.90;;;;;;5014087;28;20220;-78
2021/01/02 09:37:57;;;;;;;24.08;16.70;;;8.50;99.90;;;;;;5014239;28;20199;-78
2021/01/02 09:40:25;;;;;;;25.95;17.95;;;8.50;99.90;;;;;;5014396;28;20589;-81
2021/01/02 09:42:52;;;;;;;26.33;17.45;;;8.60;99.90;;;;;;5023224;28;20210;-81
2021/01/02 09:45:18;;;;;;;23.10;15.63;;;8.40;99.90;;;;;;5032356;28;20203;-81
2021/01/02 09:47:44;;;;;;;24.45;17.17;;;8.50;99.90;;;;;;5033705;28;20191;-81
2021/01/02 09:50:11;;;;;;;26.33;16.70;;;8.40;99.90;;;;;;5034109;28;20227;-81
2021/01/02 09:52:37;;;;;;;29.77;17.48;;;8.20;99.90;;;;;;5033679;28;20264;-81
2021/01/02 09:55:05;;;;;;;24.90;17.58;;;8.20;99.90;;;;;;5033717;28;20191;-79
2021/01/02 09:57:32;;;;;;;27.90;17.50;;;8.30;99.90;;;;;;5033658;28;20262;-80
2021/01/02 09:59:58;;;;;;;27.45;18.15;;;8.30;99.90;;;;;;5033781;28;20651;-80
2021/01/02 10:02:24;;;;;;;23.10;16.23;;;8.40;99.90;;;;;;5033658;28;20196;-80
2021/01/02 10:04:51;;;;;;;26.13;16.60;;;8.40;99.90;;;;;;5033700;28;20192;-80
2021/01/02 10:07:18;;;;;;;26.42;18.23;;;8.50;99.90;;;;;;5033518;28;20294;-81
2021/01/02 10:09:46;;;;;;;28.83;19.17;;;8.50;99.90;;;;;;5033499;28;20238;-80
2021/01/02 10:12:13;;;;;;;25.67;18.58;;;8.60;99.90;;;;;;5033705;28;20203;-80
2021/01/02 10:14:40;;;;;;;21.75;16.52;;;8.50;99.90;;;;;;5033739;28;20196;-81
2021/01/02 10:17:07;;;;;;;26.45;18.75;;;8.60;99.90;;;;;;5033160;28;20198;-82
2021/01/02 10:19:33;;;;;;;27.48;18.80;;;8.60;99.90;;;;;;5033673;28;20199;-80
2021/01/02 10:22:00;;;;;;;29.88;18.63;;;8.70;99.90;;;;;;5033295;28;20199;-80
2021/01/02 10:24:26;;;;;;;28.50;15.95;;;8.80;99.90;;;;;;5033359;28;20195;-79
2021/01/02 10:26:52;;;;;;;25.90;17.48;;;8.80;99.90;;;;;;5033068;28;20238;-79
2021/01/02 10:29:19;;;;;;;26.95;17.58;;;8.80;99.90;;;;;;5033137;28;20215;-79
2021/01/02 10:31:46;;;;;;;29.63;18.58;;;8.80;99.90;;;;;;5032730;28;20203;-85
2021/01/02 10:34:13;;;;;;;26.60;17.60;;;8.80;99.90;;;;;;5033613;28;20195;-86
2021/01/02 10:36:39;;;;;;;22.35;15.50;;;8.80;99.90;;;;;;5033334;28;20192;-85
2021/01/02 10:39:06;;;;;;;30.83;19.45;;;8.90;99.90;;;;;;5032958;28;20215;-84
2021/01/02 10:41:32;;;;;;;24.58;16.40;;;8.90;99.90;;;;;;5033188;28;20196;-84
2021/01/02 10:43:58;;;;;;;26.27;18.30;;;8.90;99.90;;;;;;5033536;28;20206;-85
2021/01/02 10:46:25;;;;;;;30.58;19.40;;;8.80;99.90;;;;;;5033727;28;20282;-85
2021/01/02 10:48:53;;;;;;;27.50;18.55;;;8.90;99.90;;;;;;5034408;28;20198;-85
2021/01/02 10:51:20;;;;;;;31.42;17.80;;;8.80;99.90;;;;;;5033364;28;20226;-84
2021/01/02 10:53:47;;;;;;;24.30;16.05;;;8.80;99.90;;;;;;5033481;28;20195;-84
2021/01/02 10:56:15;;;;;;;29.30;18.48;;;8.70;99.90;;;;;;5033242;28;20206;-85
2021/01/02 10:58:41;;;;;;;24.50;16.85;;;8.80;99.90;;;;;;5033515;28;20256;-83
2021/01/02 11:01:08;;;;;;;24.50;16.27;;;8.80;99.90;;;;;;5033324;28;20662;-84
2021/01/02 11:03:36;;;;;;;21.58;15.55;;;8.80;99.90;;;;;;5033616;28;20260;-84
2021/01/02 11:06:06;;;;;;;22.67;17.42;;;8.70;99.90;;;;;;5033070;28;20207;-84
2021/01/02 11:08:33;;;;;;;26.55;17.10;;;8.80;99.90;;;;;;5033406;28;20290;-84
2021/01/02 11:10:59;;;;;;;20.88;15.10;;;8.80;99.90;;;;;;5033038;28;20230;-85
2021/01/02 11:13:25;;;;;;;23.10;15.38;;;8.80;99.90;;;;;;5033324;28;20199;-84
2021/01/02 11:15:52;;;;;;;21.65;16.40;;;8.80;99.90;;;;;;5033078;28;20199;-85
2021/01/02 11:18:18;;;;;;;25.30;16.10;;;8.80;99.90;;;;;;5033351;28;20599;-85
2021/01/02 11:20:46;;;;;;;24.90;16.63;;;8.90;99.90;;;;;;5033385;28;20221;-85
2021/01/02 11:23:15;;;;;;;25.77;17.60;;;8.90;99.90;;;;;;5033305;28;20198;-85
2021/01/02 11:25:41;;;;;;;20.90;15.13;;;8.90;99.90;;;;;;5033095;28;20295;-84
2021/01/02 11:28:08;;;;;;;24.27;14.63;;;9.10;99.90;;;;;;5033121;28;20206;-85
2021/01/02 11:30:34;;;;;;;27.08;14.27;;;9.00;99.90;;;;;;5033145;28;20281;-85
2021/01/02 11:33:00;;;;;;;21.65;15.45;;;8.90;99.90;;;;;;5032910;28;20633;-84
2021/01/02 11:35:27;;;;;;;28.55;15.63;;;9.00;99.90;;;;;;5033019;28;20195;-85
2021/01/02 11:37:53;;;;;;;27.77;16.17;;;9.00;99.90;;;;;;5033089;28;20200;-85
2021/01/02 11:40:21;;;;;;;22.67;15.93;;;9.10;99.90;;;;;;5032880;28;20218;-84
2021/01/02 11:42:47;;;;;;;25.70;15.82;;;9.20;99.90;;;;;;5033104;28;20196;-84
2021/01/02 11:45:14;;;;;;;21.58;14.00;;;9.20;99.90;;;;;;5036453;28;20199;-84
2021/01/02 11:47:41;;;;;;;23.83;15.00;;;9.30;99.90;;;;;;5036950;28;20619;-84
2021/01/02 11:50:08;;;;;;;21.33;14.27;;;9.40;99.90;;;;;;5036424;28;20227;-84
2021/01/02 11:52:34;;;;;;;20.98;14.60;;;9.40;99.90;;;;;;5036791;28;20191;-84
2021/01/02 11:55:01;;;;;;;21.45;14.55;;;9.40;99.90;;;;;;5036538;28;20196;-84
2021/01/02 11:57:28;;;;;;;23.73;15.18;;;9.40;99.90;;;;;;5036286;28;20597;-85
2021/01/02 11:59:54;;;;;;;22.95;15.05;;;9.40;99.90;;;;;;5036211;28;20195;-85
2021/01/02 12:02:22;;;;;;;21.48;14.15;;;9.40;99.90;;;;;;5036399;28;20200;-84
2021/01/02 12:04:48;;;;;;;20.35;14.50;;;9.30;99.90;;;;;;5036245;28;20193;-84
2021/01/02 12:07:14;;;;;;;23.08;14.60;;;9.30;99.90;;;;;;5036087;28;20196;-84
2021/01/02 12:09:43;;;;;;;20.58;14.13;;;9.30;99.90;;;;;;5035854;28;20671;-84
2021/01/02 12:12:09;;;;;;;22.08;13.98;;;9.30;99.90;;;;;;5036126;28;20564;-84
2021/01/02 12:14:37;;;;;;;18.45;13.95;;;9.30;99.90;;;;;;5036160;28;20560;-84
2021/01/02 12:17:08;;;;;;;18.75;12.43;;;9.10;99.90;;;;;;5035994;28;20196;-85
2021/01/02 12:19:35;;;;;;;17.65;13.25;;;9.10;99.90;;;;;;5036246;28;20253;-85
2021/01/02 12:22:04;;;;;;;21.40;13.88;;;9.20;99.90;;;;;;5035854;28;20200;-84
2021/01/02 12:24:31;;;;;;;18.00;13.13;;;9.30;99.90;;;;;;5036070;28;20202;-84
2021/01/02 12:27:01;;;;;;;20.92;14.60;;;9.40;99.90;;;;;;5035726;28;20196;-84
2021/01/02 12:29:30;;;;;;;21.60;13.65;;;9.30;99.90;;;;;;5036036;28;20246;-85
2021/01/02 12:31:59;;;;;;;22.55;15.13;;;9.40;99.90;;;;;;5035329;28;20198;-84
2021/01/02 12:34:28;;;;;;;22.40;16.02;;;9.40;99.90;;;;;;5035707;28;20196;-83
2021/01/02 12:36:56;;;;;;;22.15;13.60;;;9.40;99.90;;;;;;5035458;28;20200;-85
2021/01/02 12:39:24;;;;;;;24.30;15.52;;;9.40;99.90;;;;;;5035309;28;20223;-85
2021/01/02 12:41:50;;;;;;;23.38;14.40;;;9.50;99.90;;;;;;5032191;28;20187;-84
2021/01/02 12:44:17;;;;;;;19.65;14.85;;;9.50;99.90;;;;;;5035920;28;20192;-85
2021/01/02 12:46:45;;;;;;;19.90;14.38;;;9.50;99.90;;;;;;5035215;28;20628;-84
2021/01/02 12:49:15;;;;;;;21.02;14.50;;;9.50;99.90;;;;;;5022879;28;20194;-85
2021/01/02 12:51:41;;;;;;;18.27;12.30;;;9.50;99.90;;;;;;5024669;28;20196;-85
2021/01/02 12:54:08;;;;;;;17.98;11.88;;;9.60;99.90;;;;;;5015559;28;20231;-85
2021/01/02 12:56:34;;;;;;;20.77;14.50;;;9.40;99.90;;;;;;5015071;28;20197;-85
2021/01/02 12:59:01;;;;;;;18.92;14.13;;;9.50;99.90;;;;;;5015447;28;20204;-84